Campus, New Mexico
Current Conditions -  °F | °C
As of 1:55 PM on Saturday 25 Oct 2014 (Local Time) from KONM Reporting Station
Clear Clear  
Wind Chill: 76°   Ceiling: Unl
Heat Index: 77°   Visibility: 10mi
Dew Point: 41°   Wind: 0mph
Humidity: 29%   Direction: NA
Pressure: 30.23"   Gusts: NA
Location:  33.8946°N, 106.565°W
Report Text: KONM 251955Z AUTO 00000KT 10SM CLR 25/05 A3023 RMK AO2 T02450051
Loading
Personal Weather Stations






























Interactive Weather Map
Tropical Storm Tracking
New forecast layout! Learn more

10-Day Weather Forecast

Advertisements
Track Severe Weather on mobile